Time;durP1;ratioP1;P1;durP2;ratioP2;P2;SDS_P1;SDS_P2;PMS_P1;PMS_P2;Temp;Humidity;BMP_temperature;BMP_pressure;BME280_temperature;BME280_humidity;BME280_pressure;Samples;Min_cycle;Max_cycle;Signal;HPM_P1;HPM_P2
2021/12/08 00:01:25;;;;;;;16.63;5.43;;;3.20;99.90;;;;;;5015703;28;20129;-81
2021/12/08 00:03:52;;;;;;;12.20;4.65;;;3.20;99.90;;;;;;5033963;28;20045;-80
2021/12/08 00:06:18;;;;;;;19.17;4.60;;;3.20;99.90;;;;;;5037323;28;20038;-80
2021/12/08 00:08:58;;;;;;;7.45;3.83;;;3.20;99.90;;;;;;5019449;28;20033;-80
2021/12/08 00:14:08;;;;;;;8.85;3.78;;;3.20;99.90;;;;;;5037093;28;20044;-79
2021/12/08 00:16:34;;;;;;;11.73;4.13;;;3.20;99.90;;;;;;5020046;28;20396;-80
2021/12/08 00:19:00;;;;;;;7.03;3.97;;;3.20;99.90;;;;;;5037353;28;20105;-80
2021/12/08 00:21:27;;;;;;;7.22;3.40;;;3.20;99.90;;;;;;5037151;28;20036;-80
2021/12/08 00:23:53;;;;;;;5.28;3.30;;;3.20;99.90;;;;;;5037134;28;20059;-80
2021/12/08 00:26:19;;;;;;;7.80;3.38;;;3.20;99.90;;;;;;5020037;28;20038;-80
2021/12/08 00:28:44;;;;;;;5.30;2.83;;;3.30;99.90;;;;;;5038559;28;20033;-80
2021/12/08 00:31:10;;;;;;;8.82;3.05;;;3.30;99.90;;;;;;5056671;28;20029;-80
2021/12/08 00:33:36;;;;;;;6.47;3.25;;;3.30;99.90;;;;;;5057189;28;20041;-80
2021/12/08 00:36:05;;;;;;;17.05;3.65;;;3.30;99.90;;;;;;5056970;28;20533;-80
2021/12/08 00:38:31;;;;;;;8.07;3.55;;;3.30;99.90;;;;;;5038498;28;20043;-81
2021/12/08 00:40:57;;;;;;;8.30;3.42;;;3.30;99.90;;;;;;5038660;28;20025;-82
2021/12/08 00:43:24;;;;;;;6.55;2.83;;;3.30;99.90;;;;;;5027053;28;20042;-81
2021/12/08 00:45:51;;;;;;;7.95;3.55;;;3.30;99.90;;;;;;5018562;28;20069;-81
2021/12/08 00:48:17;;;;;;;8.95;3.28;;;3.30;99.90;;;;;;5018720;28;20038;-80
2021/12/08 00:50:43;;;;;;;8.07;3.13;;;3.30;99.90;;;;;;5018341;28;20034;-81
2021/12/08 00:53:10;;;;;;;6.40;3.13;;;3.30;99.90;;;;;;5036509;28;20392;-81
2021/12/08 00:55:36;;;;;;;5.95;3.20;;;3.30;99.90;;;;;;5018640;28;20136;-81
2021/12/08 00:58:03;;;;;;;10.05;4.10;;;3.40;99.90;;;;;;5036672;28;20049;-81
2021/12/08 01:00:36;;;;;;;9.48;4.72;;;3.30;99.90;;;;;;5018666;28;20033;-79
2021/12/08 01:03:03;;;;;;;12.27;5.80;;;3.30;99.90;;;;;;5036278;28;20049;-80
2021/12/08 01:05:37;;;;;;;12.82;5.75;;;3.30;99.90;;;;;;5036040;28;20053;-80
2021/12/08 01:08:04;;;;;;;10.85;5.07;;;3.30;99.90;;;;;;5036283;28;20044;-80
2021/12/08 01:10:30;;;;;;;8.43;4.53;;;3.20;99.90;;;;;;5036324;28;20037;-79
2021/12/08 01:12:56;;;;;;;6.90;3.72;;;3.20;99.90;;;;;;5022321;28;20037;-79
2021/12/08 01:15:26;;;;;;;7.72;3.78;;;3.20;99.90;;;;;;5055747;28;20072;-80
2021/12/08 01:17:52;;;;;;;6.90;3.33;;;3.20;99.90;;;;;;5038670;28;20029;-79
2021/12/08 01:20:18;;;;;;;6.47;3.00;;;3.20;99.90;;;;;;5039356;28;20033;-80
2021/12/08 01:22:44;;;;;;;4.88;2.70;;;3.20;99.90;;;;;;5030458;28;20435;-78
2021/12/08 01:25:10;;;;;;;5.90;2.92;;;3.20;99.90;;;;;;5036617;28;20037;-79
2021/12/08 01:27:36;;;;;;;5.80;2.80;;;3.20;99.90;;;;;;5017930;28;20056;-80
2021/12/08 01:30:09;;;;;;;4.72;2.72;;;3.20;99.90;;;;;;5017974;28;20399;-79
2021/12/08 01:32:35;;;;;;;8.85;3.10;;;3.20;99.90;;;;;;5046255;28;20044;-80
2021/12/08 01:35:01;;;;;;;5.72;3.10;;;3.20;99.90;;;;;;5055658;28;20084;-79
2021/12/08 01:37:26;;;;;;;6.50;2.85;;;3.20;99.90;;;;;;5055291;28;20064;-79
2021/12/08 01:39:52;;;;;;;5.03;2.80;;;3.20;99.90;;;;;;5037544;28;20037;-79
2021/12/08 01:42:27;;;;;;;5.07;2.78;;;3.20;99.90;;;;;;5037773;28;20127;-79
2021/12/08 01:47:38;;;;;;;5.30;2.97;;;3.20;99.90;;;;;;5055163;28;20098;-79
2021/12/08 01:50:06;;;;;;;5.93;2.97;;;3.30;99.90;;;;;;5055239;28;20108;-79
2021/12/08 01:52:32;;;;;;;7.35;3.00;;;3.30;99.90;;;;;;5037573;28;20044;-79
2021/12/08 01:54:57;;;;;;;4.72;2.90;;;3.30;99.90;;;;;;5037082;28;20136;-79
2021/12/08 01:57:23;;;;;;;6.88;3.05;;;3.30;99.90;;;;;;5054976;28;20048;-80
2021/12/08 01:59:49;;;;;;;5.07;2.95;;;3.30;99.90;;;;;;5054938;28;20140;-79
2021/12/08 02:02:14;;;;;;;5.72;3.20;;;3.30;99.90;;;;;;5037116;28;20039;-80
2021/12/08 02:04:41;;;;;;;6.18;3.05;;;3.30;99.90;;;;;;5054642;28;20052;-80
2021/12/08 02:07:07;;;;;;;7.55;3.40;;;3.20;99.90;;;;;;5036927;28;20041;-80
2021/12/08 02:09:33;;;;;;;6.03;3.00;;;3.20;99.90;;;;;;5036936;28;20080;-80
2021/12/08 02:11:59;;;;;;;6.65;3.20;;;3.20;99.90;;;;;;5054523;28;20463;-80
2021/12/08 02:14:25;;;;;;;8.63;3.38;;;3.30;99.90;;;;;;5054663;28;20406;-80
2021/12/08 02:16:54;;;;;;;7.38;2.92;;;3.20;99.90;;;;;;5036770;28;20037;-80
2021/12/08 02:19:20;;;;;;;6.55;2.80;;;3.20;99.90;;;;;;5036199;28;20029;-80
2021/12/08 02:21:52;;;;;;;4.75;2.42;;;3.20;99.90;;;;;;5054939;28;20143;-80
2021/12/08 02:24:19;;;;;;;6.82;3.00;;;3.30;99.90;;;;;;5057326;28;20065;-79
2021/12/08 02:26:46;;;;;;;6.97;3.22;;;3.20;99.90;;;;;;5026015;28;20033;-80
2021/12/08 02:29:23;;;;;;;8.77;3.00;;;3.30;99.90;;;;;;5034660;28;20135;-80
2021/12/08 02:32:00;;;;;;;8.20;3.28;;;3.30;99.90;;;;;;5018251;28;20033;-79
2021/12/08 02:48:08;;;;;;;7.93;3.92;;;3.20;99.90;;;;;;5034562;28;20045;-80
2021/12/08 02:50:38;;;;;;;8.02;4.10;;;3.20;99.90;;;;;;5033958;28;20026;-80
2021/12/08 02:53:05;;;;;;;13.18;5.03;;;3.20;99.90;;;;;;5016405;28;20571;-80
2021/12/08 02:55:32;;;;;;;10.43;5.40;;;3.20;99.90;;;;;;5016355;28;20038;-80
2021/12/08 02:58:00;;;;;;;18.83;7.82;;;3.20;99.90;;;;;;5033786;28;20045;-80
2021/12/08 03:00:28;;;;;;;19.52;9.70;;;3.20;99.90;;;;;;5016303;28;20029;-80
2021/12/08 03:02:56;;;;;;;17.83;8.57;;;3.20;99.90;;;;;;5016353;28;20498;-80
2021/12/08 03:05:23;;;;;;;17.17;8.30;;;3.20;99.90;;;;;;5033982;28;20021;-81
2021/12/08 03:07:50;;;;;;;16.10;7.60;;;3.20;99.90;;;;;;5034083;28;20033;-81
2021/12/08 03:10:20;;;;;;;13.88;6.53;;;3.20;99.90;;;;;;5016003;28;20037;-81
2021/12/08 03:12:47;;;;;;;12.77;5.85;;;3.20;99.90;;;;;;5016032;28;20094;-80
2021/12/08 03:15:13;;;;;;;9.93;4.30;;;3.10;99.90;;;;;;5033611;28;20033;-81
2021/12/08 03:17:40;;;;;;;7.78;3.50;;;3.10;99.90;;;;;;5033901;28;20029;-80
2021/12/08 03:20:10;;;;;;;7.18;3.20;;;3.10;99.90;;;;;;5016089;28;20041;-81
2021/12/08 03:22:41;;;;;;;24.90;4.00;;;3.10;99.90;;;;;;5041864;28;20037;-81
2021/12/08 03:25:10;;;;;;;10.00;3.22;;;3.10;99.90;;;;;;5059248;28;20036;-81
2021/12/08 03:27:43;;;;;;;12.50;3.72;;;3.10;99.90;;;;;;5037136;28;20038;-80
2021/12/08 03:30:16;;;;;;;10.43;3.55;;;3.10;99.90;;;;;;5039214;28;20460;-81
2021/12/08 03:32:43;;;;;;;11.27;3.45;;;3.10;99.90;;;;;;5034115;28;20025;-81
2021/12/08 03:35:12;;;;;;;14.32;3.85;;;3.10;99.90;;;;;;5033931;28;20033;-80
2021/12/08 03:37:45;;;;;;;9.60;3.47;;;3.10;99.90;;;;;;5016009;28;20068;-80
2021/12/08 03:40:24;;;;;;;7.85;3.60;;;3.10;99.90;;;;;;5035813;28;20091;-81
2021/12/08 03:42:52;;;;;;;15.20;3.50;;;3.10;99.90;;;;;;5024687;28;20042;-80
2021/12/08 03:45:30;;;;;;;16.45;3.63;;;3.10;99.90;;;;;;5019754;28;20064;-80
2021/12/08 03:48:02;;;;;;;9.30;3.00;;;3.10;99.90;;;;;;5042220;28;20451;-79
2021/12/08 03:50:31;;;;;;;11.63;3.40;;;3.10;99.90;;;;;;5040208;28;20348;-80
2021/12/08 03:52:57;;;;;;;15.23;3.42;;;3.10;99.90;;;;;;5039277;28;20040;-80
2021/12/08 03:55:24;;;;;;;12.63;4.57;;;3.10;99.90;;;;;;5039745;28;20434;-79
2021/12/08 03:57:50;;;;;;;15.43;4.80;;;3.10;99.90;;;;;;5038963;28;20418;-80
2021/12/08 04:00:21;;;;;;;15.23;6.43;;;3.10;99.90;;;;;;5039642;28;20044;-79
2021/12/08 04:02:47;;;;;;;25.30;11.98;;;3.20;99.90;;;;;;5040447;28;20071;-80
2021/12/08 04:05:18;;;;;;;41.88;19.75;;;3.20;99.90;;;;;;5039142;28;20463;-79
2021/12/08 04:07:48;;;;;;;40.50;19.35;;;3.20;99.90;;;;;;5057509;28;20040;-80
2021/12/08 04:10:19;;;;;;;30.63;12.25;;;3.20;99.90;;;;;;5057109;28;20037;-81
2021/12/08 04:12:51;;;;;;;23.58;10.45;;;3.30;99.90;;;;;;5039321;28;20383;-80
2021/12/08 04:15:19;;;;;;;25.08;8.70;;;3.30;99.90;;;;;;5056824;28;20037;-80
2021/12/08 04:17:47;;;;;;;22.65;7.22;;;3.30;99.90;;;;;;5057109;28;20138;-80
2021/12/08 04:20:15;;;;;;;18.17;6.80;;;3.30;99.90;;;;;;5056942;28;20029;-80
2021/12/08 04:22:45;;;;;;;14.45;5.68;;;3.30;99.90;;;;;;5036565;28;20103;-80
2021/12/08 04:25:17;;;;;;;13.23;5.20;;;3.30;99.90;;;;;;5033949;28;20052;-80
2021/12/08 04:27:45;;;;;;;17.15;6.18;;;3.30;99.90;;;;;;5021014;28;20065;-80
2021/12/08 04:30:21;;;;;;;22.00;5.78;;;3.30;99.90;;;;;;5023951;28;20109;-79
2021/12/08 04:32:48;;;;;;;22.52;5.47;;;3.30;99.90;;;;;;5020134;28;20036;-80
2021/12/08 04:35:17;;;;;;;19.10;4.38;;;3.30;99.90;;;;;;5019083;28;20034;-80
2021/12/08 04:37:48;;;;;;;12.90;4.00;;;3.30;99.90;;;;;;5018964;28;20124;-80
2021/12/08 04:45:26;;;;;;;22.45;4.13;;;3.20;99.90;;;;;;5036452;28;20056;-80
2021/12/08 05:07:00;;;;;;;13.23;4.93;;;3.30;99.90;;;;;;5035624;28;20029;-78
2021/12/08 05:09:33;;;;;;;21.13;5.90;;;3.30;99.90;;;;;;5018688;28;20484;-82
2021/12/08 05:12:20;;;;;;;25.58;5.72;;;3.40;99.90;;;;;;5035706;28;20379;-79
2021/12/08 05:15:03;;;;;;;16.55;4.78;;;3.30;99.90;;;;;;5017751;28;20045;-78
2021/12/08 05:17:50;;;;;;;23.05;5.15;;;3.30;99.90;;;;;;5018145;28;20446;-79
2021/12/08 05:20:31;;;;;;;27.80;5.43;;;3.30;99.90;;;;;;5035512;28;20108;-78
2021/12/08 05:23:04;;;;;;;19.52;5.10;;;3.30;99.90;;;;;;5017593;28;20045;-82
2021/12/08 05:25:32;;;;;;;25.45;6.25;;;3.30;99.90;;;;;;5035686;28;20033;-85
2021/12/08 05:28:03;;;;;;;16.77;5.40;;;3.30;99.90;;;;;;5017807;28;20029;-80
2021/12/08 05:30:35;;;;;;;;;;;3.30;99.90;;;;;;5017934;28;20030;-80
2021/12/08 05:33:04;;;;;;;30.33;6.78;;;3.30;99.90;;;;;;5036324;28;19905;-82
2021/12/08 05:35:31;;;;;;;33.15;7.13;;;3.30;99.90;;;;;;5018422;28;20068;-83
2021/12/08 05:37:57;;;;;;;23.65;6.35;;;3.30;99.90;;;;;;5018067;28;20056;-80
2021/12/08 05:40:32;;;;;;;22.70;6.15;;;3.30;99.90;;;;;;5031642;28;20040;-81
2021/12/08 05:42:58;;;;;;;24.27;7.15;;;3.40;99.90;;;;;;5037059;28;20121;-81
2021/12/08 05:45:27;;;;;;;27.83;7.80;;;3.40;99.90;;;;;;5035845;28;20124;-80
2021/12/08 05:47:54;;;;;;;32.53;8.20;;;3.40;99.90;;;;;;5054009;28;20057;-81
2021/12/08 05:50:39;;;;;;;16.58;6.55;;;3.40;99.90;;;;;;5054254;28;20040;-83
2021/12/08 05:53:05;;;;;;;19.50;6.65;;;3.40;99.90;;;;;;5054057;28;20471;-80
2021/12/08 05:55:33;;;;;;;24.02;6.60;;;3.50;99.90;;;;;;5053130;28;20029;-81
2021/12/08 05:57:59;;;;;;;40.22;12.20;;;3.50;99.90;;;;;;5028555;28;20049;-82
2021/12/08 06:00:35;;;;;;;25.98;9.77;;;3.50;99.90;;;;;;5040742;28;20030;-80
2021/12/08 06:03:04;;;;;;;39.88;11.52;;;3.50;99.90;;;;;;5018739;28;20444;-80
2021/12/08 06:05:33;;;;;;;37.05;11.15;;;3.50;99.90;;;;;;5034813;28;20033;-79
2021/12/08 06:08:02;;;;;;;32.83;10.80;;;3.60;99.90;;;;;;5053286;28;20382;-83
2021/12/08 06:10:33;;;;;;;44.97;10.75;;;3.60;99.90;;;;;;5053809;28;20397;-78
2021/12/08 06:13:00;;;;;;;25.63;9.13;;;3.60;99.90;;;;;;5032734;28;20384;-79
2021/12/08 06:15:25;;;;;;;28.40;8.70;;;3.60;99.90;;;;;;5030578;28;20033;-79
2021/12/08 06:17:52;;;;;;;25.38;8.13;;;3.70;99.90;;;;;;5037274;28;20117;-81
2021/12/08 06:20:19;;;;;;;19.02;7.50;;;3.80;99.90;;;;;;5046457;28;20038;-79
2021/12/08 06:22:47;;;;;;;21.33;7.43;;;3.80;99.90;;;;;;5021271;28;20029;-80
2021/12/08 06:25:15;;;;;;;19.90;6.63;;;3.90;99.90;;;;;;5036447;28;20120;-79
2021/12/08 06:27:41;;;;;;;18.77;6.70;;;3.90;99.90;;;;;;5054183;28;20033;-78
2021/12/08 06:30:11;;;;;;;14.98;6.25;;;4.00;99.90;;;;;;5035973;28;20055;-79
2021/12/08 06:32:36;;;;;;;27.15;7.72;;;4.00;99.90;;;;;;5054317;28;20037;-79
2021/12/08 06:35:05;;;;;;;22.48;8.18;;;4.00;99.90;;;;;;5036392;28;20128;-79
2021/12/08 06:37:38;;;;;;;22.90;8.18;;;4.10;99.90;;;;;;5055164;28;20117;-85
2021/12/08 06:40:27;;;;;;;18.73;6.95;;;4.10;99.90;;;;;;5037280;28;20044;-82
2021/12/08 06:42:56;;;;;;;31.42;7.50;;;4.10;99.90;;;;;;5035617;28;20060;-83
2021/12/08 06:45:30;;;;;;;197.20;105.72;;;4.20;99.90;;;;;;5055339;28;20029;-83
2021/12/08 06:47:58;;;;;;;82.25;42.05;;;4.20;99.90;;;;;;5054543;28;20029;-83
2021/12/08 06:50:32;;;;;;;63.72;24.92;;;4.30;99.90;;;;;;5036569;28;20120;-84
2021/12/08 06:52:58;;;;;;;33.40;16.60;;;4.30;99.90;;;;;;5054005;28;20037;-78
2021/12/08 06:55:29;;;;;;;26.20;11.13;;;4.30;99.90;;;;;;5036600;28;20048;-79
2021/12/08 06:58:03;;;;;;;27.10;10.05;;;4.30;99.90;;;;;;5036124;28;20391;-79
2021/12/08 07:01:11;;;;;;;19.00;7.75;;;4.30;99.90;;;;;;5036037;28;20463;-79
2021/12/08 07:03:48;;;;;;;27.35;8.82;;;4.40;99.90;;;;;;5053876;28;20071;-83
2021/12/08 07:08:58;;;;;;;25.88;9.05;;;4.40;99.90;;;;;;5053989;28;20124;-82
2021/12/08 07:11:25;;;;;;;25.75;8.68;;;4.40;99.90;;;;;;5035784;28;20091;-83
2021/12/08 07:13:54;;;;;;;28.00;8.35;;;4.50;99.90;;;;;;5053128;28;20041;-83
2021/12/08 07:16:24;;;;;;;21.42;7.95;;;4.50;99.90;;;;;;5035819;28;20033;-83
2021/12/08 07:19:03;;;;;;;22.02;8.32;;;4.60;99.90;;;;;;5036913;28;20124;-82
2021/12/08 07:21:34;;;;;;;30.63;9.50;;;4.50;99.90;;;;;;5053998;28;20037;-82
2021/12/08 07:24:04;;;;;;;83.47;44.08;;;4.50;99.90;;;;;;5036737;28;20041;-80
2021/12/08 07:26:33;;;;;;;45.53;23.60;;;4.50;99.90;;;;;;5053163;28;20178;-80
2021/12/08 07:29:00;;;;;;;48.80;16.67;;;4.60;99.90;;;;;;5053581;28;20116;-78
2021/12/08 07:31:34;;;;;;;29.77;13.10;;;4.70;99.90;;;;;;5036038;28;20487;-77
2021/12/08 07:34:05;;;;;;;36.83;13.05;;;4.70;99.90;;;;;;5035660;28;20068;-79
2021/12/08 07:36:39;;;;;;;37.67;11.60;;;4.70;99.90;;;;;;5055526;28;20103;-78
2021/12/08 07:39:16;;;;;;;34.25;10.68;;;4.70;99.90;;;;;;5052995;28;20049;-77
2021/12/08 07:41:48;;;;;;;35.22;12.32;;;4.60;99.90;;;;;;5035923;28;20037;-77
2021/12/08 07:44:15;;;;;;;37.72;13.82;;;4.70;99.90;;;;;;5034360;28;20083;-80
2021/12/08 07:46:49;;;;;;;28.60;11.60;;;4.60;99.90;;;;;;5051759;28;20037;-80
2021/12/08 07:49:17;;;;;;;50.92;13.27;;;4.70;99.90;;;;;;5051514;28;20090;-80
2021/12/08 07:51:54;;;;;;;31.33;12.23;;;4.70;99.90;;;;;;5051739;28;20068;-79
2021/12/08 07:54:22;;;;;;;31.15;11.38;;;4.70;99.90;;;;;;5049972;28;20076;-82
2021/12/08 07:56:51;;;;;;;23.88;10.30;;;4.70;99.90;;;;;;5031654;28;20037;-84
2021/12/08 07:59:18;;;;;;;29.10;10.43;;;4.80;99.90;;;;;;5050650;28;20142;-79
2021/12/08 08:01:49;;;;;;;30.30;11.98;;;4.80;99.90;;;;;;5051141;28;20052;-81
2021/12/08 08:04:19;;;;;;;24.17;10.05;;;4.90;99.90;;;;;;5051024;28;20029;-78
2021/12/08 08:06:49;;;;;;;27.80;10.65;;;4.90;99.90;;;;;;5034298;28;20112;-77
2021/12/08 08:09:21;;;;;;;25.37;10.50;;;4.90;99.90;;;;;;5053036;28;20067;-77
2021/12/08 08:11:56;;;;;;;26.60;10.77;;;5.00;99.90;;;;;;5053285;28;20238;-77
2021/12/08 08:14:25;;;;;;;30.15;11.77;;;5.00;99.90;;;;;;5035230;28;20535;-78
2021/12/08 08:16:56;;;;;;;27.92;12.25;;;5.00;99.90;;;;;;5053875;28;20025;-77
2021/12/08 08:19:27;;;;;;;32.10;14.73;;;5.10;99.90;;;;;;5053282;28;20052;-77
2021/12/08 08:21:55;;;;;;;32.50;14.73;;;5.10;99.90;;;;;;5035581;28;20467;-78
2021/12/08 08:24:21;;;;;;;33.40;15.98;;;5.10;99.90;;;;;;5035064;28;20037;-77
2021/12/08 08:26:51;;;;;;;29.77;15.32;;;5.20;99.90;;;;;;5055879;28;20116;-78
2021/12/08 08:29:18;;;;;;;31.70;16.15;;;5.20;99.90;;;;;;5056779;28;20090;-77
2021/12/08 08:31:59;;;;;;;36.60;19.27;;;5.20;99.90;;;;;;5056526;28;20037;-77
2021/12/08 08:34:39;;;;;;;33.75;17.55;;;5.30;99.90;;;;;;5056655;28;20484;-77
2021/12/08 08:37:08;;;;;;;44.05;20.75;;;5.30;99.90;;;;;;5040332;28;20037;-77
2021/12/08 08:39:36;;;;;;;41.28;21.88;;;5.30;99.90;;;;;;5039733;28;20083;-77
2021/12/08 08:42:16;;;;;;;45.50;22.55;;;5.40;99.90;;;;;;5038362;28;20033;-77
2021/12/08 08:45:08;;;;;;;42.03;22.52;;;5.40;99.90;;;;;;5056476;28;20056;-77
2021/12/08 08:47:39;;;;;;;40.83;21.08;;;5.40;99.90;;;;;;5025169;28;20029;-79
2021/12/08 08:50:11;;;;;;;41.30;20.90;;;5.30;99.90;;;;;;5056992;28;20037;-77
2021/12/08 08:52:45;;;;;;;41.88;22.15;;;5.30;99.90;;;;;;5056779;28;20037;-78
2021/12/08 08:55:22;;;;;;;42.67;21.10;;;5.30;99.90;;;;;;5056230;28;20044;-78
2021/12/08 08:57:49;;;;;;;38.05;20.13;;;5.30;99.90;;;;;;5038137;28;20148;-78
2021/12/08 09:00:18;;;;;;;37.33;20.13;;;5.30;99.90;;;;;;5056160;28;20064;-78
2021/12/08 09:02:45;;;;;;;42.53;22.25;;;5.30;99.90;;;;;;5056260;28;20064;-78
2021/12/08 09:05:25;;;;;;;44.95;23.42;;;5.30;99.90;;;;;;5056321;28;20044;-78
2021/12/08 09:07:53;;;;;;;41.40;22.23;;;5.20;99.90;;;;;;5056056;28;20118;-78
2021/12/08 09:10:33;;;;;;;39.25;20.40;;;5.30;99.90;;;;;;5055900;28;20116;-78
2021/12/08 09:13:14;;;;;;;41.53;22.25;;;5.20;99.90;;;;;;5056339;28;20428;-77
2021/12/08 09:15:42;;;;;;;;;;;5.30;99.90;;;;;;5039117;28;20033;-78
2021/12/08 09:18:16;;;;;;;39.83;21.67;;;5.20;99.90;;;;;;5038351;28;19928;-78
2021/12/08 09:21:17;;;;;;;36.63;20.42;;;5.20;99.90;;;;;;5038207;28;20033;-78
2021/12/08 09:23:49;;;;;;;39.38;21.50;;;5.20;99.90;;;;;;5038722;28;20044;-78
2021/12/08 09:26:18;;;;;;;41.63;23.92;;;5.20;99.90;;;;;;5037582;28;20123;-78
2021/12/08 09:29:00;;;;;;;39.05;21.85;;;5.20;99.90;;;;;;5055451;28;20044;-77
2021/12/08 09:31:37;;;;;;;38.83;21.25;;;5.20;99.90;;;;;;5037652;28;20068;-78
2021/12/08 09:34:22;;;;;;;39.40;21.52;;;5.30;99.90;;;;;;5037640;28;20044;-78
2021/12/08 09:37:05;;;;;;;35.35;20.15;;;5.20;99.90;;;;;;5056903;28;20048;-78
2021/12/08 09:39:38;;;;;;;38.13;21.95;;;5.20;99.90;;;;;;5038547;28;20048;-79
2021/12/08 09:42:16;;;;;;;45.15;23.65;;;5.30;99.90;;;;;;5056117;28;20029;-79
2021/12/08 09:44:46;;;;;;;40.38;22.17;;;5.30;99.90;;;;;;5056085;28;20086;-78
2021/12/08 09:47:13;;;;;;;40.28;21.48;;;5.20;99.90;;;;;;5055901;28;20527;-79
2021/12/08 09:49:39;;;;;;;38.47;21.35;;;5.20;99.90;;;;;;5037066;28;20056;-79
2021/12/08 09:52:08;;;;;;;39.47;21.33;;;5.20;99.90;;;;;;5055267;28;20514;-79
2021/12/08 09:54:34;;;;;;;36.63;21.35;;;5.20;99.90;;;;;;5055488;28;20128;-79
2021/12/08 09:57:06;;;;;;;34.95;19.45;;;5.20;99.90;;;;;;5054637;28;20491;-79
2021/12/08 09:59:33;;;;;;;37.63;21.88;;;5.20;99.90;;;;;;5055197;28;20396;-79
2021/12/08 10:02:02;;;;;;;44.97;23.92;;;5.20;99.90;;;;;;5054720;28;20083;-79
2021/12/08 10:04:28;;;;;;;40.75;22.75;;;5.20;99.90;;;;;;5054712;28;20456;-79
2021/12/08 10:06:59;;;;;;;32.40;19.20;;;5.20;99.90;;;;;;5055167;28;20036;-79
2021/12/08 10:09:25;;;;;;;36.78;20.58;;;5.20;99.90;;;;;;5036971;28;20045;-78
2021/12/08 10:11:54;;;;;;;37.72;20.38;;;5.10;99.90;;;;;;5055430;28;20086;-78
2021/12/08 10:14:20;;;;;;;35.63;19.73;;;5.20;99.90;;;;;;5036908;28;20041;-78
2021/12/08 10:16:50;;;;;;;33.35;19.00;;;5.10;99.90;;;;;;5036901;28;20044;-79
2021/12/08 10:19:17;;;;;;;36.70;18.85;;;5.10;99.90;;;;;;5054928;28;20037;-79
2021/12/08 10:21:44;;;;;;;32.88;17.95;;;5.20;99.90;;;;;;5037538;28;20041;-79
2021/12/08 10:24:15;;;;;;;34.58;19.50;;;5.20;99.90;;;;;;5036497;28;20044;-78
2021/12/08 10:26:41;;;;;;;36.08;20.27;;;5.20;99.90;;;;;;5054774;28;20037;-77
2021/12/08 10:29:07;;;;;;;39.67;21.13;;;5.10;99.90;;;;;;5054576;28;20382;-78
2021/12/08 10:31:41;;;;;;;37.20;20.50;;;5.20;99.90;;;;;;5036738;28;20390;-78
2021/12/08 10:37:05;;;;;;;58.65;32.10;;;5.10;99.90;;;;;;5055098;28;20375;-78
2021/12/08 10:39:35;;;;;;;45.67;24.40;;;5.20;99.90;;;;;;5054502;28;20049;-78
2021/12/08 10:42:18;;;;;;;42.92;22.63;;;5.20;99.90;;;;;;5036304;28;20033;-78
2021/12/08 10:45:07;;;;;;;41.35;22.52;;;5.10;99.90;;;;;;5054710;28;20037;-77
2021/12/08 10:47:41;;;;;;;41.63;21.58;;;5.20;99.90;;;;;;5054506;28;20078;-77
2021/12/08 10:55:53;;;;;;;44.03;21.13;;;5.20;99.90;;;;;;5053963;28;20091;-77
2021/12/08 10:58:25;;;;;;;38.67;20.08;;;5.20;99.90;;;;;;5035939;28;20048;-78
2021/12/08 11:00:53;;;;;;;43.83;23.30;;;5.20;99.90;;;;;;5035700;28;20463;-78
2021/12/08 11:03:19;;;;;;;42.22;21.65;;;5.20;99.90;;;;;;5053868;28;20029;-78
2021/12/08 11:05:48;;;;;;;42.75;22.02;;;5.20;99.90;;;;;;5053932;28;20033;-78
2021/12/08 11:08:19;;;;;;;35.63;18.35;;;5.20;99.90;;;;;;5053976;28;20375;-79
2021/12/08 11:10:48;;;;;;;37.80;19.30;;;5.30;99.90;;;;;;5053472;28;20040;-79
2021/12/08 11:13:15;;;;;;;40.53;19.60;;;5.30;99.90;;;;;;5053409;28;20364;-77
2021/12/08 11:15:42;;;;;;;40.38;20.70;;;5.30;99.90;;;;;;5053493;28;20030;-79
2021/12/08 11:18:17;;;;;;;34.85;18.75;;;5.30;99.90;;;;;;5053426;28;20033;-78
2021/12/08 11:20:59;;;;;;;35.13;17.35;;;5.30;99.90;;;;;;5053397;28;20044;-79
2021/12/08 11:23:40;;;;;;;40.60;19.75;;;5.30;99.90;;;;;;5053860;28;20463;-78
2021/12/08 11:26:37;;;;;;;35.50;19.17;;;5.40;99.90;;;;;;5035632;28;20029;-78
2021/12/08 11:29:25;;;;;;;34.67;17.73;;;5.30;99.90;;;;;;5053724;28;20052;-79
2021/12/08 11:31:58;;;;;;;35.47;18.60;;;5.30;99.90;;;;;;5036324;28;20061;-78
2021/12/08 11:34:30;;;;;;;40.55;20.27;;;5.40;99.90;;;;;;5037098;28;20395;-78
2021/12/08 11:37:01;;;;;;;33.28;17.95;;;5.40;99.90;;;;;;5054860;28;20049;-78
2021/12/08 11:39:31;;;;;;;34.03;18.08;;;5.40;99.90;;;;;;5036147;28;20048;-78
2021/12/08 11:42:00;;;;;;;32.87;17.30;;;5.40;99.90;;;;;;5035572;28;20080;-79
2021/12/08 11:44:29;;;;;;;33.67;17.25;;;5.30;99.90;;;;;;5053083;28;20037;-78
2021/12/08 11:46:57;;;;;;;38.55;19.38;;;5.40;99.90;;;;;;5053359;28;20036;-78
2021/12/08 11:49:24;;;;;;;40.17;19.15;;;5.40;99.90;;;;;;5035407;28;20041;-78
2021/12/08 11:52:00;;;;;;;40.05;20.33;;;5.40;99.90;;;;;;5053438;28;20035;-78
2021/12/08 11:54:36;;;;;;;36.85;19.27;;;5.30;99.90;;;;;;5053261;28;20424;-78
2021/12/08 11:57:10;;;;;;;36.42;19.13;;;5.30;99.90;;;;;;5053097;28;20029;-79
2021/12/08 11:59:58;;;;;;;34.75;18.02;;;5.30;99.90;;;;;;5035994;28;20398;-80
2021/12/08 12:02:28;;;;;;;33.63;17.10;;;5.40;99.90;;;;;;5057454;28;20468;-78
2021/12/08 12:04:55;;;;;;;40.17;20.00;;;5.40;99.90;;;;;;5057118;28;20043;-77
2021/12/08 12:07:21;;;;;;;43.08;20.50;;;5.40;99.90;;;;;;5038959;28;20055;-77
2021/12/08 12:09:49;;;;;;;46.47;21.58;;;5.40;99.90;;;;;;5039138;28;20110;-78
2021/12/08 12:12:17;;;;;;;46.38;20.63;;;5.40;99.90;;;;;;5056733;28;20139;-78
2021/12/08 12:14:43;;;;;;;53.38;21.13;;;5.40;99.90;;;;;;5038842;28;20087;-78
2021/12/08 12:17:10;;;;;;;45.95;19.30;;;5.40;99.90;;;;;;5039239;28;20033;-79
2021/12/08 12:19:42;;;;;;;43.28;20.15;;;5.30;99.90;;;;;;5039099;28;20379;-78
2021/12/08 12:22:27;;;;;;;47.22;21.25;;;5.40;99.90;;;;;;5038964;28;20470;-78
2021/12/08 12:25:30;;;;;;;48.58;22.00;;;5.30;99.90;;;;;;5056905;28;20040;-78
2021/12/08 12:28:33;;;;;;;50.88;21.45;;;5.30;99.90;;;;;;5056707;28;20061;-79
2021/12/08 12:31:09;;;;;;;41.55;18.63;;;5.30;99.90;;;;;;5056840;28;20486;-79
2021/12/08 12:33:43;;;;;;;43.05;17.77;;;5.30;99.90;;;;;;5056843;28;20067;-79
2021/12/08 12:36:23;;;;;;;42.28;17.15;;;5.30;99.90;;;;;;5040055;28;20558;-80
2021/12/08 12:38:51;;;;;;;43.60;18.83;;;5.30;99.90;;;;;;5057194;28;20421;-79
2021/12/08 12:41:28;;;;;;;47.65;20.42;;;5.30;99.90;;;;;;5056659;28;20022;-79
2021/12/08 12:44:18;;;;;;;60.05;22.83;;;5.30;99.90;;;;;;5038990;28;20060;-79
2021/12/08 12:47:09;;;;;;;62.05;23.38;;;5.40;99.90;;;;;;5056380;28;20467;-80
2021/12/08 12:49:47;;;;;;;58.75;23.77;;;5.30;99.90;;;;;;5038489;28;20037;-78
2021/12/08 12:52:15;;;;;;;42.70;18.13;;;5.30;99.90;;;;;;5038715;28;20059;-79
2021/12/08 12:54:42;;;;;;;45.13;18.25;;;5.40;99.90;;;;;;5056374;28;20044;-79
2021/12/08 12:57:08;;;;;;;58.10;21.13;;;5.40;99.90;;;;;;5055933;28;20037;-80
2021/12/08 12:59:43;;;;;;;51.33;20.42;;;5.40;99.90;;;;;;5038207;28;20033;-79
2021/12/08 13:02:21;;;;;;;50.95;21.15;;;5.40;99.90;;;;;;5056490;28;20112;-80
2021/12/08 13:04:58;;;;;;;55.28;20.30;;;5.40;99.90;;;;;;5056193;28;20052;-80
2021/12/08 13:07:29;;;;;;;63.47;21.95;;;5.40;99.90;;;;;;5056019;28;20031;-80
2021/12/08 13:09:59;;;;;;;84.43;31.05;;;5.40;99.90;;;;;;5038157;28;20041;-80
2021/12/08 13:12:40;;;;;;;79.40;28.35;;;5.40;99.90;;;;;;5055005;28;20032;-80
2021/12/08 13:15:19;;;;;;;60.00;23.90;;;5.40;99.90;;;;;;5055450;28;20033;-80
2021/12/08 13:18:06;;;;;;;60.88;22.52;;;5.50;99.90;;;;;;5056075;28;20029;-79
2021/12/08 13:20:58;;;;;;;65.35;23.33;;;5.50;99.90;;;;;;5055982;28;20033;-79
2021/12/08 13:23:28;;;;;;;57.60;20.77;;;5.50;99.90;;;;;;5056370;28;20064;-79
2021/12/08 13:26:17;;;;;;;52.95;19.25;;;5.50;99.90;;;;;;5056122;28;20471;-78
2021/12/08 13:31:59;;;;;;;48.40;18.83;;;5.60;99.90;;;;;;5042313;28;20041;-79
2021/12/08 13:34:31;;;;;;;55.47;22.27;;;5.60;99.90;;;;;;5039294;28;20044;-80
2021/12/08 13:37:23;;;;;;;63.53;24.38;;;5.60;99.90;;;;;;5057924;28;20090;-80
2021/12/08 13:39:49;;;;;;;;;;;5.60;99.90;;;;;;5056497;28;20041;-79
2021/12/08 13:42:30;;;;;;;52.83;20.92;;;5.60;99.90;;;;;;5037323;28;19927;-81
2021/12/08 13:44:59;;;;;;;51.83;20.93;;;5.60;99.90;;;;;;5037769;28;20036;-79
2021/12/08 13:47:28;;;;;;;53.58;20.40;;;5.60;99.90;;;;;;5055274;28;20091;-81
2021/12/08 13:50:08;;;;;;;59.25;22.90;;;5.60;99.90;;;;;;5036753;28;20472;-81
2021/12/08 13:52:37;;;;;;;48.08;20.65;;;5.60;99.90;;;;;;5055115;28;20021;-80
2021/12/08 13:55:08;;;;;;;47.55;19.50;;;5.60;99.90;;;;;;5037376;28;20124;-81
2021/12/08 13:57:50;;;;;;;44.53;18.70;;;5.60;99.90;;;;;;5055015;28;20083;-80
2021/12/08 14:00:27;;;;;;;50.15;19.60;;;5.60;99.90;;;;;;5054782;28;20092;-80
2021/12/08 14:03:44;;;;;;;;;;;;;;;;;;;;;
2021/12/08 14:06:13;;;;;;;60.50;22.40;;;5.60;99.90;;;;;;5054517;28;20040;-80